Flight Track Log - Related Links

Times and Time Zones

All times are in EDT time to prevent confusion due to time zone crossing. See the N828BR flight status page for this flight to view local times or setup timezone preferences in your user account.

Time Position Orientation Groundspeed Altitude Reporting Facility
EDT Latitude Longitude Course Direction KTS MPH feet Rate Location/Type
Thu 09:50:58 AM 39.2000 -76.6833 322° Northwest 101 116 700  Level Potomac TRACON
Thu 09:51:58 AM 39.2333 -76.7000 339° North 118 136 1,200 600 Climbing Potomac TRACON
Thu 09:52:58 AM 39.2500 -76.7333 303° West 113 130 1,900 737 Climbing Potomac TRACON
Thu 09:53:52 AM 39.2667 -76.7500 322° Northwest 112 129 2,600 684 Climbing Potomac TRACON
Thu 09:54:52 AM 39.3000 -76.7833 322° Northwest 108 124 3,200 626 Climbing Potomac TRACON
Thu 09:55:47 AM 39.3167 -76.8000 322° Northwest 108 124 3,800 522 Climbing Potomac TRACON
Thu 09:56:00 AM 39.3526 -76.8360 322° Northwest  Level FlightAware Approximate
Thu 09:56:47 AM 39.3500 -76.7833 21° North 135 155 4,200  Level Potomac TRACON
Thu 09:57:47 AM 39.3833 -76.7667 21° North 131 151 4,600 421 Climbing Potomac TRACON
Thu 09:58:41 AM 39.4167 -76.7667 360° North 132 152 5,000 474 Climbing Potomac TRACON
Thu 09:59:41 AM 39.4500 -76.7500 21° North 139 160 5,500 450 Climbing Potomac TRACON
Thu 10:00:41 AM 39.4833 -76.7333 21° North 134 154 5,900 88 Climbing Potomac TRACON
Thu 10:02:00 AM 39.5384 -76.7650 322° Northwest  Level Estimated
Thu 10:09:00 AM 39.7515 -76.9968 356° North  Level FlightAware Approximate
Thu 10:10:00 AM 39.7970 -77.0027 351° North  Level FlightAware Approximate
Thu 10:11:00 AM 39.8423 -77.0118 351° North  Level FlightAware Approximate
Thu 10:12:00 AM 39.8877 -77.0167 North  Level FlightAware Approximate
Thu 10:13:00 AM 39.9335 -77.0167 North  Level FlightAware Approximate
Thu 10:14:00 AM 39.9791 -77.0208 354° North  Level FlightAware Approximate
Thu 10:15:00 AM 40.0246 -77.0273 354° North  Level FlightAware Approximate
Thu 10:16:00 AM 40.0701 -77.0338 354° North  Level FlightAware Approximate
Thu 10:17:00 AM 40.1156 -77.0403 354° North  Level FlightAware Approximate
Thu 10:18:00 AM 40.1610 -77.0468 354° North  Level FlightAware Approximate
Thu 10:19:00 AM 40.2065 -77.0533 354° North  Level FlightAware Approximate
Thu 10:20:00 AM 40.2520 -77.0598 354° North  Level FlightAware Approximate
Thu 10:21:00 AM 40.2975 -77.0663 354° North  Level FlightAware Approximate
Thu 10:22:00 AM 40.3413 -77.0497 17° North  Level FlightAware Approximate
Thu 10:23:00 AM 40.3849 -77.0318 17° North  Level FlightAware Approximate
Thu 10:24:00 AM 40.4286 -77.0138 17° North  Level FlightAware Approximate
Thu 10:25:00 AM 40.4723 -76.9958 17° North  Level FlightAware Approximate
Thu 10:26:00 AM 40.5159 -76.9778 17° North  Level FlightAware Approximate
Thu 10:27:00 AM 40.5596 -76.9598 17° North  Level FlightAware Approximate
Thu 10:28:00 AM 40.6036 -76.9433 14° North  Level FlightAware Approximate
Thu 10:29:00 AM 40.6479 -76.9285 14° North  Level FlightAware Approximate
Thu 10:29:05 AM 40.5544 -76.9033 10° North 150 173 8,100  Level New York Center
Thu 10:30:00 AM 40.6923 -76.9137 14° North  Level FlightAware Approximate
Thu 10:30:03 AM 40.5917 -76.9094 353° North 150 173 8,100  Level New York Center
Thu 10:31:00 AM 40.7367 -76.8989 14° North  Level FlightAware Approximate
Thu 10:31:04 AM 40.6283 -76.9264 341° North 143 165 8,100  Level New York Center
Thu 10:32:00 AM 40.7810 -76.8841 14° North  Level FlightAware Approximate
Thu 10:32:02 AM 40.6647 -76.9461 338° Northwest 143 165 8,100  Level New York Center
Thu 10:33:00 AM 40.8261 -76.8738 10° North  Level FlightAware Approximate
Thu 10:33:04 AM 40.6994 -76.9631 340° North 143 165 8,000  Level New York Center
Thu 10:34:04 AM 40.7339 -76.9797 340° North 143 165 8,000  Level New York Center
Thu 10:35:04 AM 40.7728 -76.9942 344° North 143 165 8,000  Level New York Center
Thu 10:36:05 AM 40.8094 -77.0114 340° North 143 165 8,000  Level New York Center
Thu 10:37:03 AM 40.8481 -77.0286 341° North 148 170 8,000  Level New York Center
Thu 10:38:04 AM 40.8847 -77.0456 341° North 148 170 8,000  Level New York Center
Thu 10:39:04 AM 40.9214 -77.0628 340° North 148 170 8,000  Level New York Center
Thu 10:40:05 AM 40.9600 -77.0800 341° North 148 170 8,000  Level New York Center
Thu 10:41:05 AM 40.9944 -77.0969 340° North 148 170 8,000  Level New York Center
Thu 10:42:04 AM 41.0292 -77.1114 343° North 143 165 8,000  Level New York Center
Thu 10:43:03 AM 41.0658 -77.1283 341° North 143 165 8,000  Level New York Center
Thu 10:44:03 AM 41.1022 -77.1456 340° North 143 165 8,000  Level New York Center
Thu 10:45:04 AM 41.1392 -77.1600 344° North 143 165 8,000  Level New York Center
Thu 10:46:03 AM 41.1775 -77.1803 338° Northwest 143 165 8,000  Level New York Center
Thu 10:47:03 AM 41.2142 -77.1975 341° North 143 165 8,000  Level New York Center
Thu 10:48:04 AM 41.2486 -77.2147 339° North 143 165 8,000  Level New York Center
Thu 10:49:05 AM 41.2853 -77.2292 344° North 143 165 8,000  Level New York Center
Thu 10:51:35 AM 41.3828 -77.2786 339° North 148 170 8,000  Level Cleveland Center
Thu 10:52:35 AM 41.4167 -77.2964 339° North 143 165 8,000  Level Cleveland Center
Thu 10:53:35 AM 41.4547 -77.3108 344° North 138 159 8,000  Level Cleveland Center
Thu 10:54:35 AM 41.4906 -77.3286 340° North 133 153 8,000  Level Cleveland Center
Thu 10:55:35 AM 41.5244 -77.3436 342° North 133 153 8,000  Level Cleveland Center
Thu 10:56:35 AM 41.5583 -77.3583 342° North 133 153 8,000  Level Cleveland Center
Thu 10:57:35 AM 41.5900 -77.3764 337° Northwest 133 153 8,000  Level Cleveland Center
Thu 10:58:35 AM 41.6217 -77.3886 344° North 134 154 8,000  Level Cleveland Center
Thu 10:59:35 AM 41.6575 -77.4036 343° North 134 154 8,000  Level Cleveland Center
Thu 11:00:35 AM 41.6892 -77.4186 341° North 127 146 8,000  Level Cleveland Center
Thu 11:01:35 AM 41.7128 -77.4453 320° Northwest 120 138 8,000  Level Cleveland Center
Thu 11:02:35 AM 41.7344 -77.4722 317° Northwest 110 127 8,000  Level Cleveland Center
Thu 11:03:35 AM 41.7500 -77.5047 303° West 110 127 8,000  Level Cleveland Center
Thu 11:04:35 AM 41.7717 -77.5372 312° West 110 127 8,000  Level Cleveland Center
Thu 11:05:35 AM 41.7911 -77.5669 311° West 110 127 8,000  Level Cleveland Center
Thu 11:06:35 AM 41.8128 -77.5992 312° West 110 127 8,000  Level Cleveland Center
Thu 11:07:35 AM 41.8344 -77.6261 317° Northwest 110 127 8,000  Level Cleveland Center
Thu 11:08:35 AM 41.8539 -77.6586 309° West 110 127 8,000  Level Cleveland Center
Thu 11:09:35 AM 41.8778 -77.6911 315° West 110 127 8,000  Level Cleveland Center
Thu 11:10:35 AM 41.9014 -77.7208 317° Northwest 110 127 8,000  Level Cleveland Center
Thu 11:11:35 AM 41.9253 -77.7531 315° West 110 127 8,000  Level Cleveland Center
Thu 11:12:35 AM 41.9467 -77.7856 312° West 115 132 8,000  Level Cleveland Center
Thu 11:13:35 AM 41.9706 -77.8211 312° West 115 132 8,000 50 Level Cleveland Center
Thu 11:14:35 AM 41.9922 -77.8536 312° West 115 132 8,100 50 Climbing Cleveland Center
Thu 11:15:35 AM 42.0139 -77.8861 312° West 115 132 8,100  Level Cleveland Center
Thu 11:16:35 AM 42.0375 -77.9217 312° West 120 138 8,100  Level Cleveland Center
Thu 11:17:35 AM 42.0592 -77.9542 312° West 120 138 8,100  Level Cleveland Center
Thu 11:18:35 AM 42.0828 -77.9839 317° Northwest 120 138 8,100  Level Cleveland Center
Thu 11:19:35 AM 42.1064 -78.0139 317° Northwest 115 132 8,100  Level Cleveland Center
Thu 11:20:35 AM 42.1361 -78.0350 332° Northwest 115 132 8,100  Level Cleveland Center
Thu 11:21:35 AM 42.1697 -78.0478 344° North 120 138 8,100  Level Cleveland Center
Thu 11:22:35 AM 42.2075 -78.0575 349° North 126 145 8,100  Level Cleveland Center
Thu 11:23:35 AM 42.2453 -78.0700 346° North 131 151 8,100  Level Cleveland Center
Thu 11:24:35 AM 42.2808 -78.0797 349° North 131 151 8,100  Level Cleveland Center
Thu 11:25:35 AM 42.3167 -78.0897 348° North 126 145 8,100  Level Cleveland Center
Thu 11:26:35 AM 42.3544 -78.1022 346° North 126 145 8,100  Level Cleveland Center
Thu 11:27:35 AM 42.3900 -78.1119 349° North 126 145 8,100  Level Cleveland Center
Thu 11:28:35 AM 42.4275 -78.1106 North 126 145 8,100  Level Cleveland Center
Thu 11:29:35 AM 42.4667 -78.0950 16° North 126 145 8,100  Level Cleveland Center
Thu 11:30:35 AM 42.5058 -78.0764 19° North 132 152 8,100  Level Cleveland Center
Thu 11:31:35 AM 42.5494 -78.0606 15° North 144 166 8,100  Level Cleveland Center
Thu 11:32:35 AM 42.5864 -78.0422 20° North 144 166 8,100  Level Cleveland Center
Thu 11:33:35 AM 42.6236 -78.0294 14° North 144 166 8,100  Level Cleveland Center
Thu 11:34:35 AM 42.6614 -78.0308 358° North 139 160 8,100  Level Cleveland Center
Thu 11:36:44 AM 42.7167 -78.0667 335° Northwest 98 113 8,100  Level Buffalo TRACON
Thu 11:37:44 AM 42.7333 -78.1000 304° West 103 119 8,100  Level Buffalo TRACON
Thu 11:38:44 AM 42.7500 -78.1500 294° West 111 128 8,100 -50 Level Buffalo TRACON
Thu 11:39:44 AM 42.7667 -78.1833 304° West 113 130 8,000 -300 Descending Buffalo TRACON
Thu 11:40:44 AM 42.7833 -78.2167 304° West 128 147 7,500 -500 Descending Buffalo TRACON
Thu 11:41:44 AM 42.8000 -78.2667 294° West 136 157 7,000 -496 Descending Buffalo TRACON
Thu 11:42:45 AM 42.8333 -78.3167 312° West 138 159 6,500 -545 Descending Buffalo TRACON
Thu 11:43:45 AM 42.8500 -78.3500 304° West 133 153 5,900 -550 Descending Buffalo TRACON
Thu 11:44:45 AM 42.8667 -78.4000 294° West 136 157 5,400 -500 Descending Buffalo TRACON
Thu 11:45:45 AM 42.8833 -78.4333 304° West 138 159 4,900 -500 Descending Buffalo TRACON
Thu 11:46:45 AM 42.9000 -78.4833 294° West 131 151 4,400 -400 Descending Buffalo TRACON
Thu 11:47:45 AM 42.9167 -78.5167 304° West 127 146 4,100 -150 Descending Buffalo TRACON
Thu 11:48:45 AM 42.9333 -78.5667 294° West 123 142 4,100  Level Buffalo TRACON
Thu 11:49:45 AM 42.9667 -78.6000 324° Northwest 123 142 4,100  Level Buffalo TRACON
Thu 11:50:45 AM 42.9833 -78.6500 295° West 123 142 4,100  Level Buffalo TRACON
Thu 11:51:45 AM 43.0000 -78.6833 304° West 122 140 4,100  Level Buffalo TRACON
Thu 11:52:45 AM 43.0167 -78.7167 304° West 122 140 4,100  Level Buffalo TRACON
Thu 11:53:51 AM 43.0500 -78.7500 324° Northwest 142 163 4,100 -238 Level Buffalo TRACON
Thu 11:54:51 AM 43.0833 -78.7667 340° North 157 181 3,600 -500 Descending Buffalo TRACON
Thu 11:55:51 AM 43.1167 -78.8000 324° Northwest 159 183 3,100 -550 Descending Buffalo TRACON
Thu 11:56:51 AM 43.1667 -78.8000 360° North 168 193 2,500 -400 Descending Buffalo TRACON
Thu 11:57:51 AM 43.1333 -78.7667 144° Southeast 128 147 2,300 -300 Descending Buffalo TRACON
Thu 11:58:51 AM 43.1333 -78.8167 270° West 108 124 1,900 -400 Descending Buffalo TRACON

Login

Don't have an account? Register now (free) for customized features, flight alerts, and more!